createdAt,value
2019-06-15T00:01:58.017Z,58.66
2019-06-15T00:04:28.470Z,58.62
2019-06-15T00:06:58.966Z,59.58
2019-06-15T00:09:29.411Z,59.83
2019-06-15T00:11:59.899Z,59.14
2019-06-15T00:14:30.411Z,58.63
2019-06-15T00:17:00.856Z,59.20
2019-06-15T00:19:31.464Z,59.02
2019-06-15T00:22:01.982Z,58.96
2019-06-15T00:24:35.611Z,59.17
2019-06-15T00:27:04.875Z,59.88
2019-06-15T00:29:35.333Z,59.94
2019-06-15T00:32:05.807Z,60.30
2019-06-15T00:34:36.251Z,60.48
2019-06-15T00:37:06.728Z,61.45
2019-06-15T00:39:37.183Z,61.37
2019-06-15T00:42:07.669Z,61.03
2019-06-15T00:44:38.194Z,61.33
2019-06-15T00:47:08.713Z,61.67
2019-06-15T00:49:39.196Z,61.33
2019-06-15T00:52:09.709Z,60.83
2019-06-15T00:54:49.984Z,60.92
2019-06-15T00:57:12.360Z,61.47
2019-06-15T00:59:42.863Z,62.33
2019-06-15T01:02:13.324Z,62.54
2019-06-15T01:04:43.803Z,62.48
2019-06-15T01:07:14.286Z,62.57
2019-06-15T01:09:44.735Z,62.07
2019-06-15T01:12:15.231Z,62.58
2019-06-15T01:14:45.673Z,62.12
2019-06-15T01:17:16.124Z,61.76
2019-06-15T01:19:46.610Z,61.42
2019-06-15T01:22:17.052Z,60.80
2019-06-15T01:24:47.562Z,59.63
2019-06-15T01:27:18.008Z,59.02
2019-06-15T01:29:48.471Z,58.23
2019-06-15T01:32:19.051Z,58.14
2019-06-15T01:34:49.503Z,58.06
2019-06-15T01:37:19.993Z,58.06
2019-06-15T01:39:50.484Z,57.95
2019-06-15T01:42:21.014Z,57.92
2019-06-15T01:44:51.578Z,57.99
2019-06-15T01:47:22.199Z,57.38
2019-06-15T01:49:52.728Z,57.25
2019-06-15T01:52:23.201Z,56.73
2019-06-15T01:54:53.647Z,56.66
2019-06-15T01:57:24.147Z,56.85
2019-06-15T01:59:54.599Z,57.01
2019-06-15T02:02:25.162Z,57.96
2019-06-15T02:04:55.689Z,58.34
2019-06-15T02:07:26.201Z,58.80
2019-06-15T02:09:56.690Z,59.07
2019-06-15T02:12:27.153Z,59.36
2019-06-15T02:14:57.648Z,59.30
2019-06-15T02:17:28.108Z,58.31
2019-06-15T02:19:58.600Z,58.42
2019-06-15T02:22:29.109Z,58.15
2019-06-15T02:24:59.536Z,58.34
2019-06-15T02:27:29.985Z,58.41
2019-06-15T02:30:00.544Z,58.73
2019-06-15T02:32:31.010Z,58.60
2019-06-15T02:35:01.552Z,58.59
2019-06-15T02:37:31.995Z,58.84
2019-06-15T02:40:02.508Z,58.88
2019-06-15T02:42:32.997Z,59.50
2019-06-15T02:45:03.449Z,59.47
2019-06-15T02:47:33.933Z,59.45
2019-06-15T02:50:04.690Z,60.03
2019-06-15T02:52:35.276Z,60.04
2019-06-15T02:55:06.008Z,60.19
2019-06-15T02:57:36.779Z,60.14
2019-06-15T03:00:07.914Z,60.33
2019-06-15T03:02:38.489Z,60.60
2019-06-15T03:05:09.140Z,60.50
2019-06-15T03:07:39.941Z,60.72
2019-06-15T03:10:10.821Z,60.49
2019-06-15T03:12:41.513Z,60.93
2019-06-15T03:15:12.188Z,61.01
2019-06-15T03:17:42.675Z,60.97
2019-06-15T03:20:13.328Z,60.59
2019-06-15T03:22:43.814Z,60.46
2019-06-15T03:25:14.565Z,60.28
2019-06-15T03:27:45.043Z,60.45
2019-06-15T03:30:16.657Z,60.91
2019-06-15T03:32:47.142Z,60.85
2019-06-15T03:35:19.416Z,60.96
2019-06-15T03:37:50.022Z,61.52
2019-06-15T03:40:20.513Z,61.16
2019-06-15T03:42:50.975Z,61.06
2019-06-15T03:45:21.559Z,60.59
2019-06-15T03:47:52.147Z,60.70
2019-06-15T03:50:23.078Z,60.49
2019-06-15T03:52:53.596Z,60.00
2019-06-15T03:55:24.043Z,59.71
2019-06-15T03:57:54.496Z,59.76
2019-06-15T04:00:47.786Z,59.86
2019-06-15T04:03:18.336Z,59.35
2019-06-15T04:05:48.894Z,58.98
2019-06-15T04:08:19.400Z,58.58
2019-06-15T04:10:49.860Z,58.47
2019-06-15T04:13:20.344Z,58.41
2019-06-15T04:15:50.818Z,58.22
2019-06-15T04:18:21.314Z,58.28
2019-06-15T04:20:51.771Z,57.76
2019-06-15T04:23:22.276Z,58.18
2019-06-15T04:25:52.774Z,57.65
2019-06-15T04:28:23.260Z,56.97
2019-06-15T04:30:53.763Z,57.18
2019-06-15T04:33:24.245Z,56.52
2019-06-15T04:35:54.700Z,56.17
2019-06-15T04:38:25.195Z,55.86
2019-06-15T04:40:55.650Z,55.65
2019-06-15T04:43:26.163Z,55.25
2019-06-15T04:45:56.819Z,55.19
2019-06-15T04:48:27.339Z,55.12
2019-06-15T04:50:57.832Z,55.42
2019-06-15T04:53:28.405Z,55.08
2019-06-15T04:55:58.967Z,54.89
2019-06-15T04:58:29.461Z,54.38
2019-06-15T05:01:00.122Z,53.45
2019-06-15T05:03:30.619Z,52.50
2019-06-15T05:06:01.127Z,52.71
2019-06-15T05:08:31.688Z,52.40
2019-06-15T05:11:03.677Z,52.23
2019-06-15T05:13:34.328Z,52.15
2019-06-15T05:16:05.016Z,52.62
2019-06-15T05:18:35.505Z,52.55
2019-06-15T05:21:06.258Z,53.06
2019-06-15T05:23:36.750Z,53.31
2019-06-15T05:26:07.284Z,53.66
2019-06-15T05:28:37.782Z,53.07
2019-06-15T05:31:08.273Z,51.77
2019-06-15T05:33:38.732Z,50.40
2019-06-15T05:36:09.248Z,49.43
2019-06-15T05:38:39.720Z,47.99
2019-06-15T05:41:10.191Z,47.51
2019-06-15T05:43:40.708Z,46.31
2019-06-15T05:46:11.150Z,45.44
2019-06-15T05:48:41.641Z,45.04
2019-06-15T05:51:12.282Z,45.04
2019-06-15T05:53:42.729Z,44.74
2019-06-15T05:56:13.273Z,44.24
2019-06-15T05:58:43.740Z,43.67
2019-06-15T06:01:14.197Z,42.91
2019-06-15T06:03:44.713Z,42.81
2019-06-15T06:06:15.143Z,42.03
2019-06-15T06:08:45.688Z,41.89
2019-06-15T06:11:16.141Z,41.23
2019-06-15T06:13:46.657Z,40.96
2019-06-15T06:16:17.138Z,40.85
2019-06-15T06:18:47.620Z,40.17
2019-06-15T06:21:18.082Z,39.98
2019-06-15T06:23:48.624Z,40.20
2019-06-15T06:26:19.109Z,39.49
2019-06-15T06:28:57.295Z,38.07
2019-06-15T06:31:21.780Z,38.27
2019-06-15T06:33:52.237Z,38.86
2019-06-15T06:36:22.764Z,39.10
2019-06-15T06:38:53.252Z,39.24
2019-06-15T06:41:23.755Z,38.99
2019-06-15T06:43:54.222Z,38.82
2019-06-15T06:46:24.735Z,39.33
2019-06-15T06:48:55.289Z,39.98
2019-06-15T06:51:25.796Z,39.17
2019-06-15T06:53:56.249Z,38.95
2019-06-15T06:56:26.775Z,38.36
2019-06-15T06:58:57.283Z,37.51
2019-06-15T07:01:27.787Z,36.76
2019-06-15T07:03:58.250Z,36.75
2019-06-15T07:06:28.768Z,36.33
2019-06-15T07:08:59.227Z,36.49
2019-06-15T07:11:29.727Z,35.21
2019-06-15T07:14:00.168Z,35.33
2019-06-15T07:16:30.685Z,35.06
2019-06-15T07:19:01.198Z,34.74
2019-06-15T07:21:31.729Z,34.34
2019-06-15T07:24:02.179Z,33.62
2019-06-15T07:26:32.681Z,34.17
2019-06-15T07:29:03.248Z,34.23
2019-06-15T07:31:33.713Z,34.33
2019-06-15T07:34:04.282Z,34.09
2019-06-15T07:36:34.773Z,34.24
2019-06-15T07:39:07.174Z,34.64
2019-06-15T07:41:37.634Z,34.49
2019-06-15T07:44:08.192Z,34.72
2019-06-15T07:46:38.692Z,34.61
2019-06-15T07:49:09.193Z,32.44
2019-06-15T07:51:39.694Z,32.96
2019-06-15T07:54:10.203Z,32.43
2019-06-15T07:56:40.741Z,30.98
2019-06-15T07:59:11.204Z,29.86
2019-06-15T08:01:41.711Z,30.55
2019-06-15T08:04:12.168Z,31.18
2019-06-15T08:06:42.707Z,30.38
2019-06-15T08:09:13.145Z,28.82
2019-06-15T08:11:45.842Z,29.27
2019-06-15T08:14:16.135Z,29.33
2019-06-15T08:16:46.626Z,29.39
2019-06-15T08:19:17.115Z,30.22
2019-06-15T08:21:47.588Z,30.04
2019-06-15T08:24:18.058Z,30.10
2019-06-15T08:26:48.679Z,30.30
2019-06-15T08:29:19.149Z,29.99
2019-06-15T08:31:49.663Z,31.80
2019-06-15T08:34:20.131Z,30.37
2019-06-15T08:36:50.637Z,30.98
2019-06-15T08:39:21.092Z,31.15
2019-06-15T08:41:51.608Z,30.87
2019-06-15T08:44:22.132Z,30.68
2019-06-15T08:46:52.558Z,29.35
2019-06-15T08:49:23.060Z,30.24
2019-06-15T08:51:53.521Z,29.62
2019-06-15T08:54:24.069Z,29.89
2019-06-15T08:56:54.560Z,30.32
2019-06-15T08:59:25.032Z,29.70
2019-06-15T09:01:55.530Z,29.81
2019-06-15T09:04:25.990Z,30.25
2019-06-15T09:06:56.487Z,29.80
2019-06-15T09:09:26.995Z,29.67
2019-06-15T09:11:57.442Z,29.72
2019-06-15T09:14:27.893Z,29.52
2019-06-15T09:16:58.424Z,30.05
2019-06-15T09:19:28.935Z,29.20
2019-06-15T09:21:59.392Z,29.50
2019-06-15T09:24:29.921Z,28.69
2019-06-15T09:27:00.375Z,28.64
2019-06-15T09:29:30.931Z,28.47
2019-06-15T09:32:01.397Z,28.67
2019-06-15T09:34:31.972Z,28.58
2019-06-15T09:37:02.472Z,29.05
2019-06-15T09:39:33.033Z,28.95
2019-06-15T09:42:03.537Z,29.00
2019-06-15T09:44:34.001Z,28.16
2019-06-15T09:47:04.652Z,28.67
2019-06-15T09:49:35.114Z,29.04
2019-06-15T09:52:05.620Z,29.18
2019-06-15T09:54:36.104Z,29.27
2019-06-15T09:57:07.495Z,28.38
2019-06-15T09:59:38.543Z,27.68
2019-06-15T10:02:09.075Z,27.89
2019-06-15T10:04:39.540Z,26.85
2019-06-15T10:07:10.037Z,25.99
2019-06-15T10:09:40.609Z,25.12
2019-06-15T10:12:11.197Z,25.65
2019-06-15T10:14:41.655Z,25.81
2019-06-15T10:17:12.192Z,24.55
2019-06-15T10:19:42.688Z,25.13
2019-06-15T10:22:13.203Z,25.27
2019-06-15T10:24:43.700Z,26.07
2019-06-15T10:27:14.213Z,26.29
2019-06-15T10:29:44.667Z,26.37
2019-06-15T10:32:15.184Z,25.56
2019-06-15T10:34:45.710Z,25.86
2019-06-15T10:37:16.207Z,26.07
2019-06-15T10:39:46.721Z,25.55
2019-06-15T10:42:17.176Z,26.27
2019-06-15T10:44:47.691Z,25.87
2019-06-15T10:47:18.151Z,25.66
2019-06-15T10:49:48.671Z,26.32
2019-06-15T10:52:19.166Z,25.74
2019-06-15T10:54:49.680Z,26.33
2019-06-15T10:57:20.138Z,26.42
2019-06-15T10:59:57.181Z,26.13
2019-06-15T11:02:22.879Z,27.10
2019-06-15T11:04:53.472Z,26.18
2019-06-15T11:07:23.927Z,26.31
2019-06-15T11:09:54.527Z,26.08
2019-06-15T11:12:24.985Z,26.52
2019-06-15T11:14:55.484Z,26.98
2019-06-15T11:17:26.047Z,26.99
2019-06-15T11:19:56.560Z,27.27
2019-06-15T11:22:26.999Z,26.94
2019-06-15T11:24:57.493Z,27.89
2019-06-15T11:27:27.953Z,27.28
2019-06-15T11:30:12.576Z,27.33
2019-06-15T11:32:30.743Z,28.12
2019-06-15T11:35:01.399Z,26.83
2019-06-15T11:37:32.307Z,25.98
2019-06-15T11:40:02.816Z,25.88
2019-06-15T11:42:34.270Z,25.85
2019-06-15T11:45:04.949Z,25.67
2019-06-15T11:47:35.393Z,26.03
2019-06-15T11:50:07.364Z,27.28
2019-06-15T11:52:37.895Z,24.65
2019-06-15T11:55:08.551Z,25.04
2019-06-15T11:57:39.053Z,26.70
2019-06-15T12:00:09.785Z,27.21
2019-06-15T12:02:40.328Z,27.40
2019-06-15T12:05:10.902Z,27.94
2019-06-15T12:07:41.504Z,26.97
2019-06-15T12:10:12.212Z,27.50
2019-06-15T12:12:42.725Z,27.58
2019-06-15T12:15:14.702Z,26.93
2019-06-15T12:17:45.160Z,27.32
2019-06-15T12:20:15.869Z,27.38
2019-06-15T12:22:46.321Z,27.06
2019-06-15T12:25:17.048Z,26.66
2019-06-15T12:27:47.496Z,26.33
2019-06-15T12:30:22.238Z,27.31
2019-06-15T12:32:52.702Z,27.40
2019-06-15T12:35:23.244Z,27.09
2019-06-15T12:37:53.707Z,27.39
2019-06-15T12:40:24.164Z,27.15
2019-06-15T12:42:54.687Z,27.34
2019-06-15T12:45:25.240Z,26.97
2019-06-15T12:47:55.954Z,26.83
2019-06-15T12:50:26.537Z,27.31
2019-06-15T12:52:57.015Z,26.38
2019-06-15T12:55:27.468Z,27.03
2019-06-15T12:57:57.965Z,26.20
2019-06-15T13:00:34.096Z,25.90
2019-06-15T13:03:04.706Z,26.30
2019-06-15T13:05:35.342Z,25.22
2019-06-15T13:08:06.345Z,24.32
2019-06-15T13:10:36.813Z,25.09
2019-06-15T13:13:07.299Z,25.99
2019-06-15T13:15:37.802Z,25.89
2019-06-15T13:18:08.253Z,26.26
2019-06-15T13:20:38.756Z,26.41
2019-06-15T13:23:09.214Z,26.72
2019-06-15T13:25:39.774Z,27.17
2019-06-15T13:28:10.311Z,27.60
2019-06-15T13:30:40.810Z,26.94
2019-06-15T13:33:11.341Z,27.90
2019-06-15T13:35:41.799Z,28.11
2019-06-15T13:38:12.316Z,27.96
2019-06-15T13:40:42.845Z,27.78
2019-06-15T13:43:13.380Z,28.71
2019-06-15T13:45:43.828Z,29.04
2019-06-15T13:48:14.291Z,28.38
2019-06-15T13:50:44.799Z,27.88
2019-06-15T13:53:15.258Z,28.13
2019-06-15T13:55:45.748Z,29.26
2019-06-15T13:58:16.209Z,28.79
2019-06-15T14:00:46.803Z,28.64
2019-06-15T14:03:17.292Z,28.88
2019-06-15T14:05:47.748Z,29.04
2019-06-15T14:08:18.357Z,29.48
2019-06-15T14:10:48.869Z,28.47
2019-06-15T14:13:19.320Z,28.72
2019-06-15T14:15:49.837Z,28.68
2019-06-15T14:18:20.297Z,28.19
2019-06-15T14:20:50.814Z,27.91
2019-06-15T14:23:21.268Z,28.38
2019-06-15T14:25:51.797Z,28.61
2019-06-15T14:28:22.300Z,28.68
2019-06-15T14:30:52.760Z,28.72
2019-06-15T14:33:23.563Z,29.14
2019-06-15T14:35:54.048Z,29.53
2019-06-15T14:38:24.551Z,28.88
2019-06-15T14:40:55.005Z,29.20
2019-06-15T14:43:25.453Z,29.55
2019-06-15T14:45:59.830Z,29.64
2019-06-15T14:48:28.148Z,29.48
2019-06-15T14:50:58.608Z,28.92
2019-06-15T14:53:29.150Z,29.03
2019-06-15T14:55:59.613Z,28.93
2019-06-15T14:58:30.136Z,29.74
2019-06-15T15:01:00.638Z,29.59
2019-06-15T15:03:31.098Z,29.16
2019-06-15T15:06:01.597Z,29.12
2019-06-15T15:08:32.045Z,28.83
2019-06-15T15:11:06.463Z,29.25
2019-06-15T15:13:36.581Z,29.43
2019-06-15T15:16:07.314Z,29.92
2019-06-15T15:18:37.735Z,29.34
2019-06-15T15:21:08.323Z,29.04
2019-06-15T15:23:38.831Z,28.85
2019-06-15T15:26:09.452Z,29.44
2019-06-15T15:28:39.921Z,29.79
2019-06-15T15:31:10.446Z,30.42
2019-06-15T15:33:40.896Z,30.08
2019-06-15T15:36:11.399Z,30.12
2019-06-15T15:38:41.847Z,29.82
2019-06-15T15:41:12.405Z,29.97
2019-06-15T15:43:42.901Z,30.44
2019-06-15T15:46:16.220Z,30.28
2019-06-15T15:48:47.045Z,30.92
2019-06-15T15:51:17.728Z,31.49
2019-06-15T15:53:48.245Z,31.99
2019-06-15T15:56:18.696Z,31.45
2019-06-15T15:58:49.153Z,31.82
2019-06-15T16:01:19.609Z,31.45
2019-06-15T16:03:50.125Z,31.14
2019-06-15T16:06:20.583Z,31.58
2019-06-15T16:08:51.105Z,31.51
2019-06-15T16:11:21.560Z,31.51
2019-06-15T16:13:52.147Z,31.52
2019-06-15T16:16:22.598Z,31.49
2019-06-15T16:18:53.098Z,31.86
2019-06-15T16:21:25.895Z,31.85
2019-06-15T16:23:58.278Z,31.85
2019-06-15T16:26:27.941Z,32.46
2019-06-15T16:28:58.481Z,32.65
2019-06-15T16:31:29.429Z,32.94
2019-06-15T16:34:00.021Z,33.10
2019-06-15T16:36:30.534Z,33.63
2019-06-15T16:39:00.985Z,33.81
2019-06-15T16:41:31.488Z,33.87
2019-06-15T16:44:01.971Z,34.39
2019-06-15T16:46:32.457Z,34.51
2019-06-15T16:49:02.917Z,34.50
2019-06-15T16:51:36.139Z,34.35
2019-06-15T16:54:06.717Z,34.86
2019-06-15T16:56:37.176Z,34.97
2019-06-15T16:59:07.673Z,35.18
2019-06-15T17:01:38.227Z,35.35
2019-06-15T17:04:10.279Z,35.45
2019-06-15T17:06:40.959Z,35.19
2019-06-15T17:09:11.453Z,35.55
2019-06-15T17:11:41.915Z,36.08
2019-06-15T17:14:12.388Z,36.49
2019-06-15T17:16:42.779Z,36.51
2019-06-15T17:19:13.237Z,36.93
2019-06-15T17:21:43.643Z,36.91
2019-06-15T17:24:14.139Z,36.89
2019-06-15T17:26:46.657Z,37.42
2019-06-15T17:29:16.679Z,37.55
2019-06-15T17:31:47.148Z,37.98
2019-06-15T17:34:17.715Z,38.05
2019-06-15T17:36:48.135Z,38.42
2019-06-15T17:39:18.596Z,38.50
2019-06-15T17:41:49.075Z,38.71
2019-06-15T17:44:19.527Z,38.96
2019-06-15T17:46:50.036Z,39.11
2019-06-15T17:49:20.525Z,39.67
2019-06-15T17:51:50.988Z,40.20
2019-06-15T17:54:21.499Z,40.00
2019-06-15T17:56:51.964Z,40.35
2019-06-15T17:59:22.569Z,40.60
2019-06-15T18:01:53.115Z,40.55
2019-06-15T18:04:23.568Z,40.67
2019-06-15T18:06:56.791Z,40.85
2019-06-15T18:09:26.403Z,40.96
2019-06-15T18:11:57.247Z,41.41
2019-06-15T18:14:27.751Z,41.41
2019-06-15T18:16:58.387Z,41.43
2019-06-15T18:19:28.783Z,41.81
2019-06-15T18:21:59.244Z,42.13
2019-06-15T18:24:29.752Z,42.13
2019-06-15T18:27:00.200Z,42.54
2019-06-15T18:29:30.705Z,42.40
2019-06-15T18:32:01.241Z,42.40
2019-06-15T18:34:31.680Z,42.52
2019-06-15T18:37:02.235Z,42.55
2019-06-15T18:39:32.677Z,42.23
2019-06-15T18:42:03.200Z,42.42
2019-06-15T18:44:33.725Z,42.52
2019-06-15T18:47:04.173Z,43.00
2019-06-15T18:49:36.261Z,43.04
2019-06-15T18:52:06.815Z,43.16
2019-06-15T18:54:37.474Z,43.20
2019-06-15T18:57:07.931Z,43.41
2019-06-15T18:59:38.401Z,43.36
2019-06-15T19:02:09.143Z,43.35
2019-06-15T19:04:39.605Z,42.88
2019-06-15T19:07:10.129Z,42.39
2019-06-15T19:09:40.600Z,42.34
2019-06-15T19:12:11.205Z,42.58
2019-06-15T19:14:41.761Z,42.42
2019-06-15T19:17:12.266Z,42.91
2019-06-15T19:19:42.736Z,42.88
2019-06-15T19:22:13.244Z,42.86
2019-06-15T19:24:47.314Z,43.31
2019-06-15T19:27:16.194Z,43.72
2019-06-15T19:29:46.784Z,43.91
2019-06-15T19:32:17.421Z,43.70
2019-06-15T19:34:51.112Z,43.71
2019-06-15T19:37:20.204Z,44.35
2019-06-15T19:39:50.669Z,44.55
2019-06-15T19:42:21.168Z,44.75
2019-06-15T19:44:51.665Z,45.07
2019-06-15T19:47:22.161Z,45.11
2019-06-15T19:49:52.625Z,45.41
2019-06-15T19:52:23.173Z,45.09
2019-06-15T19:54:53.622Z,45.57
2019-06-15T19:57:27.179Z,46.04
2019-06-15T19:59:57.699Z,46.15
2019-06-15T20:02:28.224Z,46.70
2019-06-15T20:05:03.407Z,47.74
2019-06-15T20:07:30.883Z,47.74
2019-06-15T20:10:03.278Z,47.52
2019-06-15T20:12:37.435Z,47.62
2019-06-15T20:15:10.003Z,47.55
2019-06-15T20:17:40.544Z,47.39
2019-06-15T20:20:11.567Z,47.32
2019-06-15T20:22:42.069Z,47.87
2019-06-15T20:25:12.828Z,47.58
2019-06-15T20:27:43.333Z,47.86
2019-06-15T20:30:16.835Z,47.33
2019-06-15T20:32:46.385Z,47.90
2019-06-15T20:35:21.084Z,48.50
2019-06-15T20:37:49.163Z,48.98
2019-06-15T20:40:19.636Z,49.33
2019-06-15T20:42:50.145Z,49.37
2019-06-15T20:45:20.710Z,49.93
2019-06-15T20:47:51.215Z,50.38
2019-06-15T20:50:27.868Z,50.19
2019-06-15T20:52:56.453Z,50.50
2019-06-15T20:55:26.652Z,51.02
2019-06-15T20:57:57.232Z,51.15
2019-06-15T21:00:27.796Z,51.40
2019-06-15T21:02:58.314Z,51.89
2019-06-15T21:05:37.278Z,52.13
2019-06-15T21:08:01.077Z,51.78
2019-06-15T21:10:31.596Z,52.17
2019-06-15T21:13:02.051Z,51.88
2019-06-15T21:15:36.870Z,51.90
2019-06-15T21:18:07.514Z,51.83
2019-06-15T21:20:37.989Z,51.93
2019-06-15T21:23:08.493Z,51.80
2019-06-15T21:25:39.062Z,52.19
2019-06-15T21:28:09.554Z,52.43
2019-06-15T21:30:40.018Z,52.25
2019-06-15T21:33:10.528Z,52.23
2019-06-15T21:35:49.130Z,52.45
2019-06-15T21:38:13.408Z,53.62
2019-06-15T21:40:43.967Z,53.12
2019-06-15T21:43:14.496Z,52.86
2019-06-15T21:45:46.290Z,53.05
2019-06-15T21:48:17.173Z,52.94
2019-06-15T21:50:47.631Z,53.43
2019-06-15T21:53:18.140Z,53.10
2019-06-15T21:55:48.589Z,53.11
2019-06-15T21:58:19.099Z,52.86
2019-06-15T22:01:06.279Z,52.59
2019-06-15T22:03:36.970Z,52.36
2019-06-15T22:06:07.379Z,52.13
2019-06-15T22:08:37.876Z,52.18
2019-06-15T22:11:08.432Z,52.15
2019-06-15T22:13:38.930Z,52.71
2019-06-15T22:16:09.469Z,52.42
2019-06-15T22:18:39.984Z,52.25
2019-06-15T22:21:10.475Z,52.43
2019-06-15T22:23:40.967Z,52.22
2019-06-15T22:26:11.422Z,52.22
2019-06-15T22:28:41.920Z,52.19
2019-06-15T22:31:12.400Z,52.06
2019-06-15T22:33:42.886Z,51.95
2019-06-15T22:36:22.306Z,51.90
2019-06-15T22:38:46.162Z,51.90
2019-06-15T22:41:16.842Z,52.70
2019-06-15T22:43:47.321Z,51.88
2019-06-15T22:46:17.806Z,51.74
2019-06-15T22:48:48.271Z,51.75
2019-06-15T22:51:18.859Z,51.70
2019-06-15T22:53:49.314Z,51.44
2019-06-15T22:56:19.828Z,51.42
2019-06-15T22:58:50.319Z,51.57
2019-06-15T23:01:20.778Z,51.54
2019-06-15T23:03:51.248Z,51.56
2019-06-15T23:06:33.895Z,51.11
2019-06-15T23:08:56.332Z,51.21
2019-06-15T23:11:26.657Z,51.47
2019-06-15T23:13:57.690Z,51.47
2019-06-15T23:16:28.328Z,52.59
2019-06-15T23:18:58.793Z,53.32
2019-06-15T23:21:29.249Z,53.47
2019-06-15T23:23:59.752Z,52.91
2019-06-15T23:26:30.260Z,53.18
2019-06-15T23:29:00.760Z,53.67
2019-06-15T23:31:31.315Z,54.07
2019-06-15T23:34:01.833Z,53.70
2019-06-15T23:36:52.011Z,53.89
2019-06-15T23:39:08.088Z,53.65
2019-06-15T23:41:38.626Z,53.91
2019-06-15T23:44:09.113Z,53.98
2019-06-15T23:46:39.615Z,53.76
2019-06-15T23:49:10.056Z,53.91
2019-06-15T23:51:40.551Z,54.36
2019-06-15T23:54:11.025Z,54.36
2019-06-15T23:56:41.481Z,54.70
2019-06-15T23:59:11.959Z,54.54
